sensor_id;sensor_type;location;lat;lon;timestamp;pressure;altitude;pressure_sealevel;temperature;humidity
68489;BME280;55481;48.764;8.936;2022-08-21T00:04:05;97140;;;14.8;59
68489;BME280;55481;48.764;8.936;2022-08-21T00:06:35;97150;;;14.7;59.5
68489;BME280;55481;48.764;8.936;2022-08-21T00:09:06;97150;;;14.6;59.5
68489;BME280;55481;48.764;8.936;2022-08-21T00:11:36;97140;;;14.6;59.5
68489;BME280;55481;48.764;8.936;2022-08-21T00:14:07;97140;;;14.4;59.5
68489;BME280;55481;48.764;8.936;2022-08-21T00:16:37;97140;;;14.3;60
68489;BME280;55481;48.764;8.936;2022-08-21T00:19:09;97140;;;14.2;60
68489;BME280;55481;48.764;8.936;2022-08-21T00:21:39;97140;;;14.1;60.5
68489;BME280;55481;48.764;8.936;2022-08-21T00:24:10;97140;;;14;60.5
68489;BME280;55481;48.764;8.936;2022-08-21T00:34:13;97130;;;14;60
68489;BME280;55481;48.764;8.936;2022-08-21T00:39:20;97130;;;14.3;59.5
68489;BME280;55481;48.764;8.936;2022-08-21T00:41:52;97130;;;14.2;59.5
68489;BME280;55481;48.764;8.936;2022-08-21T00:46:49;97130;;;14.3;59.5
68489;BME280;55481;48.764;8.936;2022-08-21T00:49:17;97130;;;14.3;59.5
68489;BME280;55481;48.764;8.936;2022-08-21T00:51:51;97130;;;14.3;59.5
68489;BME280;55481;48.764;8.936;2022-08-21T00:54:21;97130;;;14.2;59.5
68489;BME280;55481;48.764;8.936;2022-08-21T01:01:51;97120;;;14.2;60
68489;BME280;55481;48.764;8.936;2022-08-21T01:07:05;97120;;;14.1;60
68489;BME280;55481;48.764;8.936;2022-08-21T01:09:36;97120;;;14;60.5
68489;BME280;55481;48.764;8.936;2022-08-21T01:12:01;97120;;;14.1;60
68489;BME280;55481;48.764;8.936;2022-08-21T01:14:31;97120;;;14.1;60
68489;BME280;55481;48.764;8.936;2022-08-21T01:17:02;97120;;;14.1;60
68489;BME280;55481;48.764;8.936;2022-08-21T01:19:39;97120;;;14;60.5
68489;BME280;55481;48.764;8.936;2022-08-21T01:22:11;97130;;;13.9;60.5
68489;BME280;55481;48.764;8.936;2022-08-21T01:24:47;97130;;;13.8;60.5
68489;BME280;55481;48.764;8.936;2022-08-21T01:27:24;97120;;;13.8;60.5
68489;BME280;55481;48.764;8.936;2022-08-21T01:32:06;97120;;;13.9;60.5
68489;BME280;55481;48.764;8.936;2022-08-21T01:34:36;97120;;;13.8;60.5
68489;BME280;55481;48.764;8.936;2022-08-21T01:37:06;97120;;;13.7;61
68489;BME280;55481;48.764;8.936;2022-08-21T01:39:37;97120;;;13.6;61
68489;BME280;55481;48.764;8.936;2022-08-21T01:42:09;97120;;;13.3;61.5
68489;BME280;55481;48.764;8.936;2022-08-21T01:49:33;97120;;;13.5;61
68489;BME280;55481;48.764;8.936;2022-08-21T01:54:34;97110;;;13.5;61
68489;BME280;55481;48.764;8.936;2022-08-21T01:57:05;97110;;;13.4;61
68489;BME280;55481;48.764;8.936;2022-08-21T02:02:12;97110;;;13.3;61.5
68489;BME280;55481;48.764;8.936;2022-08-21T02:04:43;97110;;;13.4;61
68489;BME280;55481;48.764;8.936;2022-08-21T02:07:21;97110;;;13.3;61.5
68489;BME280;55481;48.764;8.936;2022-08-21T02:12:10;97110;;;13.1;62
68489;BME280;55481;48.764;8.936;2022-08-21T02:14:40;97100;;;13.2;61.5
68489;BME280;55481;48.764;8.936;2022-08-21T02:17:11;97100;;;13.2;61.5
68489;BME280;55481;48.764;8.936;2022-08-21T02:19:41;97100;;;13.1;61.5
68489;BME280;55481;48.764;8.936;2022-08-21T02:24:43;97100;;;12.8;62
68489;BME280;55481;48.764;8.936;2022-08-21T02:27:14;97100;;;12.7;62.5
68489;BME280;55481;48.764;8.936;2022-08-21T02:34:46;97080;;;12.9;62
68489;BME280;55481;48.764;8.936;2022-08-21T02:37:17;97090;;;12.7;62.5
68489;BME280;55481;48.764;8.936;2022-08-21T02:42:25;97090;;;13;61.5
68489;BME280;55481;48.764;8.936;2022-08-21T02:44:55;97090;;;12.9;62
68489;BME280;55481;48.764;8.936;2022-08-21T02:47:37;97090;;;12.9;62
68489;BME280;55481;48.764;8.936;2022-08-21T02:52:21;97090;;;13;62
68489;BME280;55481;48.764;8.936;2022-08-21T02:54:52;97080;;;13;61.5
68489;BME280;55481;48.764;8.936;2022-08-21T03:02:25;97090;;;12.9;62
68489;BME280;55481;48.764;8.936;2022-08-21T03:04:55;97090;;;13;62
68489;BME280;55481;48.764;8.936;2022-08-21T03:07:26;97090;;;12.9;62
68489;BME280;55481;48.764;8.936;2022-08-21T03:09:57;97090;;;12.8;62
68489;BME280;55481;48.764;8.936;2022-08-21T03:15:06;97090;;;12.8;62.5
68489;BME280;55481;48.764;8.936;2022-08-21T03:17:35;97090;;;12.7;62.5
68489;BME280;55481;48.764;8.936;2022-08-21T03:20:07;97090;;;12.6;62.5
68489;BME280;55481;48.764;8.936;2022-08-21T03:22:37;97080;;;12.4;63
68489;BME280;55481;48.764;8.936;2022-08-21T03:32:34;97090;;;12.4;63
68489;BME280;55481;48.764;8.936;2022-08-21T03:35:04;97090;;;12.4;63
68489;BME280;55481;48.764;8.936;2022-08-21T03:37:35;97090;;;12.2;63.5
68489;BME280;55481;48.764;8.936;2022-08-21T03:40:07;97090;;;12.1;63.5
68489;BME280;55481;48.764;8.936;2022-08-21T03:42:43;97090;;;12.1;63.5
68489;BME280;55481;48.764;8.936;2022-08-21T03:45:21;97090;;;12.3;63
68489;BME280;55481;48.764;8.936;2022-08-21T03:47:53;97100;;;12.3;63
68489;BME280;55481;48.764;8.936;2022-08-21T03:52:47;97090;;;12.4;63
68489;BME280;55481;48.764;8.936;2022-08-21T03:55:18;97100;;;12.5;62.5
68489;BME280;55481;48.764;8.936;2022-08-21T03:57:49;97090;;;12.4;63
68489;BME280;55481;48.764;8.936;2022-08-21T04:00:20;97100;;;12.4;63
68489;BME280;55481;48.764;8.936;2022-08-21T04:02:53;97100;;;12.4;63
68489;BME280;55481;48.764;8.936;2022-08-21T04:05:22;97100;;;12.3;63
68489;BME280;55481;48.764;8.936;2022-08-21T04:07:46;97100;;;12.2;63.5
68489;BME280;55481;48.764;8.936;2022-08-21T04:10:17;97100;;;12.4;63
68489;BME280;55481;48.764;8.936;2022-08-21T04:17:50;97110;;;12.2;63.5
68489;BME280;55481;48.764;8.936;2022-08-21T04:22:51;97120;;;12.3;63.5
68489;BME280;55481;48.764;8.936;2022-08-21T04:28:05;97120;;;12.2;63.5
68489;BME280;55481;48.764;8.936;2022-08-21T04:30:35;97130;;;12;64
68489;BME280;55481;48.764;8.936;2022-08-21T04:33:05;97130;;;12;64
68489;BME280;55481;48.764;8.936;2022-08-21T04:35:35;97130;;;12.1;64
68489;BME280;55481;48.764;8.936;2022-08-21T04:37:59;97130;;;12;64
68489;BME280;55481;48.764;8.936;2022-08-21T04:40:30;97130;;;11.9;64.5
68489;BME280;55481;48.764;8.936;2022-08-21T04:43:08;97140;;;12;64
68489;BME280;55481;48.764;8.936;2022-08-21T04:45:41;97140;;;11.9;64
68489;BME280;55481;48.764;8.936;2022-08-21T04:50:29;97140;;;12;64
68489;BME280;55481;48.764;8.936;2022-08-21T04:55:28;97130;;;12.2;63.5
68489;BME280;55481;48.764;8.936;2022-08-21T04:57:59;97130;;;12.2;63.5
68489;BME280;55481;48.764;8.936;2022-08-21T05:00:29;97140;;;12.4;63.5
68489;BME280;55481;48.764;8.936;2022-08-21T05:03:04;97140;;;12.5;63
68489;BME280;55481;48.764;8.936;2022-08-21T05:05:38;97140;;;12.7;62.5
68489;BME280;55481;48.764;8.936;2022-08-21T05:08:11;97140;;;12.6;63
68489;BME280;55481;48.764;8.936;2022-08-21T05:10:46;97140;;;12.7;62.5
68489;BME280;55481;48.764;8.936;2022-08-21T05:13:18;97140;;;12.7;62.5
68489;BME280;55481;48.764;8.936;2022-08-21T05:21:03;97150;;;12.8;63
68489;BME280;55481;48.764;8.936;2022-08-21T05:23:20;97150;;;12.9;62.5
68489;BME280;55481;48.764;8.936;2022-08-21T05:25:50;97150;;;12.9;63
68489;BME280;55481;48.764;8.936;2022-08-21T05:30:44;97150;;;12.8;63
68489;BME280;55481;48.764;8.936;2022-08-21T05:33:15;97150;;;12.9;63
68489;BME280;55481;48.764;8.936;2022-08-21T05:35:53;97160;;;13;62.5
68489;BME280;55481;48.764;8.936;2022-08-21T05:43:37;97160;;;13;63
68489;BME280;55481;48.764;8.936;2022-08-21T05:45:54;97170;;;13.2;62.5
68489;BME280;55481;48.764;8.936;2022-08-21T05:50:50;97160;;;13.5;62
68489;BME280;55481;48.764;8.936;2022-08-21T05:53:20;97160;;;13.7;61.5
68489;BME280;55481;48.764;8.936;2022-08-21T05:55:51;97160;;;14;61
68489;BME280;55481;48.764;8.936;2022-08-21T05:58:21;97160;;;14.1;61
68489;BME280;55481;48.764;8.936;2022-08-21T06:05:47;97150;;;14.6;60.5
68489;BME280;55481;48.764;8.936;2022-08-21T06:08:19;97150;;;14.8;60
68489;BME280;55481;48.764;8.936;2022-08-21T06:10:49;97150;;;14.9;60
68489;BME280;55481;48.764;8.936;2022-08-21T06:13:20;97150;;;15;60
68489;BME280;55481;48.764;8.936;2022-08-21T06:16:06;97150;;;15.1;60
68489;BME280;55481;48.764;8.936;2022-08-21T06:18:28;97150;;;15.2;60
68489;BME280;55481;48.764;8.936;2022-08-21T06:20:59;97150;;;15.4;59.5
68489;BME280;55481;48.764;8.936;2022-08-21T06:25:54;97150;;;15.7;59.5
68489;BME280;55481;48.764;8.936;2022-08-21T06:28:25;97150;;;15.9;59
68489;BME280;55481;48.764;8.936;2022-08-21T06:35:57;97140;;;16.2;59
68489;BME280;55481;48.764;8.936;2022-08-21T06:38:28;97150;;;16.3;59
68489;BME280;55481;48.764;8.936;2022-08-21T06:40:58;97140;;;16.6;58.5
68489;BME280;55481;48.764;8.936;2022-08-21T06:43:29;97140;;;16.9;58
68489;BME280;55481;48.764;8.936;2022-08-21T06:46:07;97130;;;16.9;58
68489;BME280;55481;48.764;8.936;2022-08-21T06:48:37;97130;;;17.1;58
68489;BME280;55481;48.764;8.936;2022-08-21T06:51:08;97130;;;17.2;58
68489;BME280;55481;48.764;8.936;2022-08-21T06:53:32;97130;;;17.4;57.5
68489;BME280;55481;48.764;8.936;2022-08-21T06:56:08;97130;;;17.6;57.5
68489;BME280;55481;48.764;8.936;2022-08-21T07:03:37;97120;;;18;57.5
68489;BME280;55481;48.764;8.936;2022-08-21T07:06:07;97120;;;18.2;57
68489;BME280;55481;48.764;8.936;2022-08-21T07:08:38;97110;;;18.4;57
68489;BME280;55481;48.764;8.936;2022-08-21T07:13:44;97110;;;18.8;56.5
68489;BME280;55481;48.764;8.936;2022-08-21T07:16:15;97110;;;18.9;56.5
68489;BME280;55481;48.764;8.936;2022-08-21T07:18:47;97110;;;19;56.5
68489;BME280;55481;48.764;8.936;2022-08-21T07:21:10;97110;;;19.1;56.5
68489;BME280;55481;48.764;8.936;2022-08-21T07:23:43;97120;;;19.3;56
68489;BME280;55481;48.764;8.936;2022-08-21T07:31:14;97110;;;19.8;56
68489;BME280;55481;48.764;8.936;2022-08-21T07:33:45;97110;;;19.8;56
68489;BME280;55481;48.764;8.936;2022-08-21T07:36:15;97110;;;20.2;55.5
68489;BME280;55481;48.764;8.936;2022-08-21T07:41:24;97100;;;20.4;55
68489;BME280;55481;48.764;8.936;2022-08-21T07:43:54;97100;;;20.6;55
68489;BME280;55481;48.764;8.936;2022-08-21T07:46:25;97100;;;20.5;55
68489;BME280;55481;48.764;8.936;2022-08-21T07:48:55;97100;;;20.8;55
68489;BME280;55481;48.764;8.936;2022-08-21T07:51:21;97090;;;21;54.5
68489;BME280;55481;48.764;8.936;2022-08-21T07:53:51;97090;;;21.1;54.5
68489;BME280;55481;48.764;8.936;2022-08-21T08:01:23;97090;;;21.5;54
68489;BME280;55481;48.764;8.936;2022-08-21T08:03:53;97090;;;21.7;54
68489;BME280;55481;48.764;8.936;2022-08-21T08:06:24;97090;;;21.9;53.5
68489;BME280;55481;48.764;8.936;2022-08-21T08:11:32;97090;;;22;53.5
68489;BME280;55481;48.764;8.936;2022-08-21T08:14:03;97080;;;22.2;53.5
68489;BME280;55481;48.764;8.936;2022-08-21T08:16:34;97080;;;22.3;53.5
68489;BME280;55481;48.764;8.936;2022-08-21T08:21:28;97080;;;22.9;52.5
68489;BME280;55481;48.764;8.936;2022-08-21T08:29:01;97070;;;22.8;53
68489;BME280;55481;48.764;8.936;2022-08-21T08:31:32;97070;;;22.7;53.5
68489;BME280;55481;48.764;8.936;2022-08-21T08:34:14;97070;;;22.8;53.5
68489;BME280;55481;48.764;8.936;2022-08-21T08:36:34;97060;;;22.9;53
68489;BME280;55481;48.764;8.936;2022-08-21T08:39:04;97070;;;22.8;53
68489;BME280;55481;48.764;8.936;2022-08-21T08:41:34;97060;;;22.9;53
68489;BME280;55481;48.764;8.936;2022-08-21T08:44:05;97060;;;23.3;52.5
68489;BME280;55481;48.764;8.936;2022-08-21T08:46:41;97060;;;23.2;52.5
68489;BME280;55481;48.764;8.936;2022-08-21T08:49:16;97060;;;23.2;52.5
68489;BME280;55481;48.764;8.936;2022-08-21T09:01:47;97040;;;24.1;51
68489;BME280;55481;48.764;8.936;2022-08-21T09:04:21;97040;;;24.1;51
68489;BME280;55481;48.764;8.936;2022-08-21T09:09:30;97040;;;24.1;51
68489;BME280;55481;48.764;8.936;2022-08-21T09:12:00;97040;;;23.9;51.5
68489;BME280;55481;48.764;8.936;2022-08-21T09:16:55;97030;;;24.2;51
68489;BME280;55481;48.764;8.936;2022-08-21T09:19:33;97030;;;24;51.5
68489;BME280;55481;48.764;8.936;2022-08-21T09:24:32;97030;;;24.5;51
68489;BME280;55481;48.764;8.936;2022-08-21T09:26:57;97030;;;24.4;51
68489;BME280;55481;48.764;8.936;2022-08-21T09:33:43;97020;;;24.9;51
68489;BME280;55481;48.764;8.936;2022-08-21T09:38:10;97020;;;25;50.5
68489;BME280;55481;48.764;8.936;2022-08-21T09:40:42;97020;;;24.6;51
68489;BME280;55481;48.764;8.936;2022-08-21T09:43:19;97020;;;24.4;51
68489;BME280;55481;48.764;8.936;2022-08-21T09:45:42;97020;;;24.8;50.5
68489;BME280;55481;48.764;8.936;2022-08-21T09:48:14;97020;;;25.1;49.5
68489;BME280;55481;48.764;8.936;2022-08-21T09:50:43;97020;;;24.8;50
68489;BME280;55481;48.764;8.936;2022-08-21T09:55:49;97020;;;24.7;50
68489;BME280;55481;48.764;8.936;2022-08-21T09:58:16;97020;;;24.8;50
68489;BME280;55481;48.764;8.936;2022-08-21T10:01:01;97020;;;25.1;49.5
68489;BME280;55481;48.764;8.936;2022-08-21T10:03:24;97010;;;25.5;49
68489;BME280;55481;48.764;8.936;2022-08-21T10:06:03;97010;;;25.6;48.5
68489;BME280;55481;48.764;8.936;2022-08-21T10:13:39;97000;;;25.7;48.5
68489;BME280;55481;48.764;8.936;2022-08-21T10:16:09;97000;;;25.6;49
68489;BME280;55481;48.764;8.936;2022-08-21T10:18:55;97010;;;24.9;50
68489;BME280;55481;48.764;8.936;2022-08-21T10:23:51;97000;;;25.2;49.5
68489;BME280;55481;48.764;8.936;2022-08-21T10:26:08;96990;;;25.8;48.5
68489;BME280;55481;48.764;8.936;2022-08-21T10:28:38;96990;;;26.4;47.5
68489;BME280;55481;48.764;8.936;2022-08-21T10:34:03;96980;;;26.6;47
68489;BME280;55481;48.764;8.936;2022-08-21T10:36:07;96980;;;26.5;47.5
68489;BME280;55481;48.764;8.936;2022-08-21T10:38:42;96980;;;26.3;48
68489;BME280;55481;48.764;8.936;2022-08-21T10:48:45;96960;;;26.4;48
68489;BME280;55481;48.764;8.936;2022-08-21T10:51:16;96960;;;26.5;47.5
68489;BME280;55481;48.764;8.936;2022-08-21T10:54:46;96960;;;26.9;47
68489;BME280;55481;48.764;8.936;2022-08-21T10:56:15;96960;;;27.1;46.5
68489;BME280;55481;48.764;8.936;2022-08-21T10:58:45;96960;;;27.1;46.5
68489;BME280;55481;48.764;8.936;2022-08-21T11:04:02;96960;;;27.6;46
68489;BME280;55481;48.764;8.936;2022-08-21T11:06:20;96960;;;27.6;46
68489;BME280;55481;48.764;8.936;2022-08-21T11:08:43;96960;;;27.9;45.5
68489;BME280;55481;48.764;8.936;2022-08-21T11:11:15;96950;;;27.9;45.5
68489;BME280;55481;48.764;8.936;2022-08-21T11:13:44;96950;;;27.4;46.5
68489;BME280;55481;48.764;8.936;2022-08-21T11:18:37;96950;;;27.4;47
68489;BME280;55481;48.764;8.936;2022-08-21T11:21:19;96950;;;26.9;48
68489;BME280;55481;48.764;8.936;2022-08-21T11:23:48;96950;;;27.1;47.5
68489;BME280;55481;48.764;8.936;2022-08-21T11:26:12;96940;;;27.5;46.5
68489;BME280;55481;48.764;8.936;2022-08-21T11:31:39;96940;;;28.2;45
68489;BME280;55481;48.764;8.936;2022-08-21T11:33:41;96930;;;28.3;45
68489;BME280;55481;48.764;8.936;2022-08-21T11:36:12;96940;;;28.7;44.5
68489;BME280;55481;48.764;8.936;2022-08-21T11:38:39;96930;;;28.7;44.5
68489;BME280;55481;48.764;8.936;2022-08-21T11:41:11;96930;;;28.6;44.5
68489;BME280;55481;48.764;8.936;2022-08-21T11:43:39;96930;;;29.3;43.5
68489;BME280;55481;48.764;8.936;2022-08-21T11:56:20;96920;;;33.7;36.5
68489;BME280;55481;48.764;8.936;2022-08-21T11:58:50;96910;;;34.1;36
68489;BME280;55481;48.764;8.936;2022-08-21T12:01:21;96920;;;34.5;35.5
68489;BME280;55481;48.764;8.936;2022-08-21T12:06:36;96920;;;35.1;35
68489;BME280;55481;48.764;8.936;2022-08-21T12:09:01;96920;;;35.2;35.5
68489;BME280;55481;48.764;8.936;2022-08-21T12:11:29;96910;;;35.3;35
68489;BME280;55481;48.764;8.936;2022-08-21T12:14:11;96920;;;35.5;35
68489;BME280;55481;48.764;8.936;2022-08-21T12:16:32;96910;;;35.2;35.5
68489;BME280;55481;48.764;8.936;2022-08-21T12:19:03;96910;;;35;36
68489;BME280;55481;48.764;8.936;2022-08-21T12:24:36;96900;;;35.3;35.5
68489;BME280;55481;48.764;8.936;2022-08-21T12:26:50;96900;;;36;35
68489;BME280;55481;48.764;8.936;2022-08-21T12:29:07;96900;;;36.1;35
68489;BME280;55481;48.764;8.936;2022-08-21T12:31:49;96900;;;35.4;36
68489;BME280;55481;48.764;8.936;2022-08-21T12:33:58;96900;;;34.2;38
68489;BME280;55481;48.764;8.936;2022-08-21T12:36:35;96890;;;35.5;36
68489;BME280;55481;48.764;8.936;2022-08-21T12:39:01;96890;;;35.4;36
68489;BME280;55481;48.764;8.936;2022-08-21T12:41:26;96890;;;35.9;35
68489;BME280;55481;48.764;8.936;2022-08-21T12:43:59;96890;;;34.7;37
68489;BME280;55481;48.764;8.936;2022-08-21T12:46:27;96890;;;35.5;36
68489;BME280;55481;48.764;8.936;2022-08-21T12:48:57;96890;;;35.4;35.5
68489;BME280;55481;48.764;8.936;2022-08-21T12:51:32;96890;;;35.5;35.5
68489;BME280;55481;48.764;8.936;2022-08-21T12:53:58;96890;;;35.3;36
68489;BME280;55481;48.764;8.936;2022-08-21T12:56:29;96890;;;35;36
68489;BME280;55481;48.764;8.936;2022-08-21T12:59:03;96890;;;36;34.5
68489;BME280;55481;48.764;8.936;2022-08-21T13:01:31;96890;;;34.9;35.5
68489;BME280;55481;48.764;8.936;2022-08-21T13:04:02;96890;;;35.1;35.5
68489;BME280;55481;48.764;8.936;2022-08-21T13:06:32;96900;;;32.2;39.5
68489;BME280;55481;48.764;8.936;2022-08-21T13:14:26;96900;;;30.2;41.5
68489;BME280;55481;48.764;8.936;2022-08-21T13:19:11;96900;;;32;37.5
68489;BME280;55481;48.764;8.936;2022-08-21T13:21:43;96910;;;29;42
68489;BME280;55481;48.764;8.936;2022-08-21T13:24:21;96900;;;29.9;40.5
68489;BME280;55481;48.764;8.936;2022-08-21T13:29:09;96890;;;33.2;35
68489;BME280;55481;48.764;8.936;2022-08-21T13:31:39;96900;;;32.8;35.5
68489;BME280;55481;48.764;8.936;2022-08-21T13:34:11;96880;;;33.9;34
68489;BME280;55481;48.764;8.936;2022-08-21T13:44:21;96880;;;32.7;36
68489;BME280;55481;48.764;8.936;2022-08-21T13:49:29;96870;;;34.6;33
68489;BME280;55481;48.764;8.936;2022-08-21T13:51:56;96870;;;34.5;33.5
68489;BME280;55481;48.764;8.936;2022-08-21T13:54:29;96870;;;34.8;33
68489;BME280;55481;48.764;8.936;2022-08-21T13:59:24;96870;;;34;34.5
68489;BME280;55481;48.764;8.936;2022-08-21T14:02:00;96870;;;34.6;33.5
68489;BME280;55481;48.764;8.936;2022-08-21T14:04:23;96880;;;35.1;33
68489;BME280;55481;48.764;8.936;2022-08-21T14:07:00;96870;;;35.7;32
68489;BME280;55481;48.764;8.936;2022-08-21T14:09:40;96870;;;36.3;31.5
68489;BME280;55481;48.764;8.936;2022-08-21T14:12:16;96870;;;36.3;31.5
68489;BME280;55481;48.764;8.936;2022-08-21T14:16:58;96880;;;33.1;35.5
68489;BME280;55481;48.764;8.936;2022-08-21T14:19:27;96890;;;29.8;41
68489;BME280;55481;48.764;8.936;2022-08-21T14:24:26;96870;;;30.6;39
68489;BME280;55481;48.764;8.936;2022-08-21T14:26:54;96870;;;32.8;35
68489;BME280;55481;48.764;8.936;2022-08-21T14:29:24;96870;;;31.6;36
68489;BME280;55481;48.764;8.936;2022-08-21T14:36:55;96860;;;34.6;31.5
68489;BME280;55481;48.764;8.936;2022-08-21T14:39:26;96850;;;35.1;31
68489;BME280;55481;48.764;8.936;2022-08-21T14:41:57;96850;;;34.8;31
68489;BME280;55481;48.764;8.936;2022-08-21T14:44:34;96860;;;33.9;32
68489;BME280;55481;48.764;8.936;2022-08-21T14:47:05;96860;;;31.4;36
68489;BME280;55481;48.764;8.936;2022-08-21T14:49:36;96860;;;31;36.5
68489;BME280;55481;48.764;8.936;2022-08-21T14:52:07;96870;;;29.1;39
68489;BME280;55481;48.764;8.936;2022-08-21T14:54:38;96870;;;28.1;40.5
68489;BME280;55481;48.764;8.936;2022-08-21T14:59:33;96850;;;30.4;36.5
68489;BME280;55481;48.764;8.936;2022-08-21T15:02:04;96850;;;30.8;35.5
68489;BME280;55481;48.764;8.936;2022-08-21T15:04:34;96860;;;30.6;35.5
68489;BME280;55481;48.764;8.936;2022-08-21T15:09:36;96860;;;28.9;37.5
68489;BME280;55481;48.764;8.936;2022-08-21T15:12:06;96860;;;27.9;39
68489;BME280;55481;48.764;8.936;2022-08-21T15:17:20;96850;;;28.4;37.5
68489;BME280;55481;48.764;8.936;2022-08-21T15:19:51;96850;;;28.3;37.5
68489;BME280;55481;48.764;8.936;2022-08-21T15:22:15;96850;;;27.8;38
68489;BME280;55481;48.764;8.936;2022-08-21T15:24:52;96850;;;27.7;38
68489;BME280;55481;48.764;8.936;2022-08-21T15:27:26;96850;;;27.7;38
68489;BME280;55481;48.764;8.936;2022-08-21T15:32:21;96840;;;27.3;38
68489;BME280;55481;48.764;8.936;2022-08-21T15:37:26;96840;;;27.4;38
68489;BME280;55481;48.764;8.936;2022-08-21T15:39:56;96830;;;27.5;37.5
68489;BME280;55481;48.764;8.936;2022-08-21T15:44:50;96840;;;27.3;38
68489;BME280;55481;48.764;8.936;2022-08-21T15:47:22;96830;;;27.1;38
68489;BME280;55481;48.764;8.936;2022-08-21T15:49:58;96830;;;27;38
68489;BME280;55481;48.764;8.936;2022-08-21T15:52:32;96830;;;26.9;38
68489;BME280;55481;48.764;8.936;2022-08-21T15:55:00;96820;;;26.8;38
68489;BME280;55481;48.764;8.936;2022-08-21T16:02:34;96820;;;26.6;38.5
68489;BME280;55481;48.764;8.936;2022-08-21T16:05:04;96820;;;26.6;38.5
68489;BME280;55481;48.764;8.936;2022-08-21T16:07:33;96820;;;26.4;38.5
68489;BME280;55481;48.764;8.936;2022-08-21T16:12:29;96820;;;26.3;38.5
68489;BME280;55481;48.764;8.936;2022-08-21T16:14:59;96810;;;26.4;38.5
68489;BME280;55481;48.764;8.936;2022-08-21T16:17:31;96810;;;26.4;38.5
68489;BME280;55481;48.764;8.936;2022-08-21T16:20:02;96820;;;26.3;38.5
68489;BME280;55481;48.764;8.936;2022-08-21T16:27:54;96810;;;26.2;38.5
68489;BME280;55481;48.764;8.936;2022-08-21T16:30:09;96810;;;26.2;38.5
68489;BME280;55481;48.764;8.936;2022-08-21T16:32:40;96810;;;26.1;38.5
68489;BME280;55481;48.764;8.936;2022-08-21T16:35:10;96810;;;26;39
68489;BME280;55481;48.764;8.936;2022-08-21T16:40:03;96800;;;25.9;39
68489;BME280;55481;48.764;8.936;2022-08-21T16:42:34;96800;;;25.9;39
68489;BME280;55481;48.764;8.936;2022-08-21T16:45:12;96800;;;25.9;39
68489;BME280;55481;48.764;8.936;2022-08-21T16:47:36;96810;;;25.8;39
68489;BME280;55481;48.764;8.936;2022-08-21T16:50:15;96810;;;25.7;39
68489;BME280;55481;48.764;8.936;2022-08-21T16:52:50;96800;;;25.6;39
68489;BME280;55481;48.764;8.936;2022-08-21T16:55:20;96800;;;25.6;39
68489;BME280;55481;48.764;8.936;2022-08-21T17:00:08;96800;;;25.6;39
68489;BME280;55481;48.764;8.936;2022-08-21T17:02:43;96800;;;25.6;39
68489;BME280;55481;48.764;8.936;2022-08-21T17:05:18;96800;;;25.5;39
68489;BME280;55481;48.764;8.936;2022-08-21T17:07:41;96800;;;25.3;39.5
68489;BME280;55481;48.764;8.936;2022-08-21T17:10:13;96800;;;25.2;39.5
68489;BME280;55481;48.764;8.936;2022-08-21T17:12:43;96800;;;25.3;39.5
68489;BME280;55481;48.764;8.936;2022-08-21T17:15:22;96800;;;25.2;39.5
68489;BME280;55481;48.764;8.936;2022-08-21T17:17:51;96800;;;25.2;39.5
68489;BME280;55481;48.764;8.936;2022-08-21T17:20:32;96800;;;25.1;39.5
68489;BME280;55481;48.764;8.936;2022-08-21T17:27:56;96800;;;24.8;40
68489;BME280;55481;48.764;8.936;2022-08-21T17:30:25;96800;;;24.6;40.5
68489;BME280;55481;48.764;8.936;2022-08-21T17:32:56;96810;;;24.6;40.5
68489;BME280;55481;48.764;8.936;2022-08-21T17:37:49;96800;;;24.6;40
68489;BME280;55481;48.764;8.936;2022-08-21T17:40:20;96810;;;24.5;40.5
68489;BME280;55481;48.764;8.936;2022-08-21T17:42:51;96810;;;24.4;40.5
68489;BME280;55481;48.764;8.936;2022-08-21T17:45:28;96810;;;24.3;40.5
68489;BME280;55481;48.764;8.936;2022-08-21T17:48:00;96810;;;24.2;40.5
68489;BME280;55481;48.764;8.936;2022-08-21T17:53:13;96820;;;24.1;40.5
68489;BME280;55481;48.764;8.936;2022-08-21T17:57:55;96820;;;23.8;41
68489;BME280;55481;48.764;8.936;2022-08-21T18:00:25;96820;;;23.8;41
68489;BME280;55481;48.764;8.936;2022-08-21T18:05:20;96820;;;23.6;41
68489;BME280;55481;48.764;8.936;2022-08-21T18:07:51;96820;;;23.5;41
68489;BME280;55481;48.764;8.936;2022-08-21T18:15:23;96820;;;23.3;41.5
68489;BME280;55481;48.764;8.936;2022-08-21T18:17:54;96820;;;23.2;41.5
68489;BME280;55481;48.764;8.936;2022-08-21T18:20:25;96820;;;23.1;41.5
68489;BME280;55481;48.764;8.936;2022-08-21T18:23:02;96820;;;23;41.5
68489;BME280;55481;48.764;8.936;2022-08-21T18:25:33;96820;;;22.9;42
68489;BME280;55481;48.764;8.936;2022-08-21T18:28:05;96830;;;22.8;42
68489;BME280;55481;48.764;8.936;2022-08-21T18:30:28;96830;;;22.9;41.5
68489;BME280;55481;48.764;8.936;2022-08-21T18:32:59;96830;;;22.9;41.5
68489;BME280;55481;48.764;8.936;2022-08-21T18:35:29;96830;;;22.7;42
68489;BME280;55481;48.764;8.936;2022-08-21T18:43:02;96840;;;22.4;42
68489;BME280;55481;48.764;8.936;2022-08-21T18:45:32;96850;;;22.4;42
68489;BME280;55481;48.764;8.936;2022-08-21T18:48:06;96850;;;22.3;42.5
68489;BME280;55481;48.764;8.936;2022-08-21T18:50:35;96850;;;21.9;43
68489;BME280;55481;48.764;8.936;2022-08-21T18:53:05;96860;;;21.7;43
68489;BME280;55481;48.764;8.936;2022-08-21T18:55:36;96850;;;21.6;43
68489;BME280;55481;48.764;8.936;2022-08-21T18:58:06;96860;;;21.5;43
68489;BME280;55481;48.764;8.936;2022-08-21T19:00:45;96860;;;21.4;43.5
68489;BME280;55481;48.764;8.936;2022-08-21T19:03:16;96860;;;21.4;43
68489;BME280;55481;48.764;8.936;2022-08-21T19:05:46;96860;;;21.4;43
68489;BME280;55481;48.764;8.936;2022-08-21T19:08:18;96860;;;21.2;43.5
68489;BME280;55481;48.764;8.936;2022-08-21T19:10:55;96870;;;21;43.5
68489;BME280;55481;48.764;8.936;2022-08-21T19:13:26;96870;;;20.8;44
68489;BME280;55481;48.764;8.936;2022-08-21T19:16:03;96870;;;20.8;44
68489;BME280;55481;48.764;8.936;2022-08-21T19:20:50;96880;;;20.5;44
68489;BME280;55481;48.764;8.936;2022-08-21T19:23:21;96880;;;20.5;44
68489;BME280;55481;48.764;8.936;2022-08-21T19:25:52;96880;;;20.4;44
68489;BME280;55481;48.764;8.936;2022-08-21T19:28:25;96880;;;20.4;44
68489;BME280;55481;48.764;8.936;2022-08-21T19:30:51;96880;;;20.4;44